Saturday, December 16, 2017, 9:25 PM EST
Back to Local

KPYM, Plymouth Municipal Airport

Location: Carver, MA, United States Lat: 41.9
Local Time: 9:25 PM EST ( 2:25 GMT) Lon: -70.733
Time Zone: US/Eastern Elev: 147 ft

Show me the last for .
Show Decoded

2017-12-16 20:52 METAR KPYM 170152Z AUTO 29007KT 10SM CLR M02/M09 A3011 RMK AO2 SLP197 T10221089
                 =
2017-12-16 19:52 METAR KPYM 170052Z AUTO 29007KT 10SM CLR M02/M08 A3007 RMK AO2 SLP186 T10221078
                 =
2017-12-16 18:52 METAR KPYM 162352Z AUTO 26006KT 10SM FEW080 M02/M08 A3005 RMK AO2 SLP178
                 T10221083 10017 21022 53033 =
2017-12-16 17:52 METAR KPYM 162252Z AUTO 28004KT 10SM OVC085 M02/M09 A3001 RMK AO2 SLP165
                 T10171089 =
2017-12-16 16:52 METAR KPYM 162152Z AUTO 27003KT 10SM OVC110 M01/M09 A2997 RMK AO2 SLP152
                 T10111089 =
2017-12-16 15:52 METAR KPYM 162052Z AUTO 26008KT 10SM SCT060 BKN110 00/M09 A2995 RMK AO2 SLP143
                 T00001089 53017 =
2017-12-16 14:52 METAR KPYM 161952Z AUTO 26009KT 10SM OVC100 01/M09 A2993 RMK AO2 SLP135
                 T00111089 =
2017-12-16 13:52 METAR KPYM 161852Z AUTO 26017G21KT 10SM OVC110 01/M10 A2990 RMK AO2 SLP127
                 T00111100 =
2017-12-16 12:52 METAR KPYM 161752Z AUTO 26014G23KT 10SM OVC120 01/M09 A2990 RMK AO2 SLP126
                 T00111094 10017 21094 58016 =
2017-12-16 11:52 METAR KPYM 161652Z AUTO 26014G18KT 10SM CLR 02/M08 A2992 RMK AO2 SLP133
                 T00171083 =
2017-12-16 10:52 METAR KPYM 161552Z AUTO 27008KT 10SM CLR M01/M08 A2993 RMK AO2 SLP136 T10061083
                 =
2017-12-16 09:52 METAR KPYM 161452Z AUTO 28010KT 10SM CLR M02/M08 A2995 RMK AO2 SLP142 T10221083
                 53019 =
2017-12-16 08:52 METAR KPYM 161352Z AUTO 26009KT 10SM CLR M04/M09 A2993 RMK AO2 SLP137 T10391089
                 =
2017-12-16 07:52 METAR KPYM 161252Z AUTO 24006KT 10SM CLR M08/M10 A2991 RMK AO2 SLP130 T10781100
                 =
2017-12-16 06:52 METAR KPYM 161152Z AUTO 25006KT 10SM CLR M09/M12 A2989 RMK AO2 SLP125 I1000
                 I6000 T10941117 11044 21094 51024 =
2017-12-16 05:52 METAR KPYM 161052Z AUTO 25004KT 10SM CLR M08/M10 A2987 RMK AO2 SLP118 T10781100
                 =
2017-12-16 04:52 METAR KPYM 160952Z AUTO 25006KT 10SM CLR M06/M09 A2985 RMK AO2 SLP109 T10611089
                 =
2017-12-16 03:52 METAR KPYM 160852Z AUTO 26007KT 10SM OVC095 M05/M08 A2982 RMK AO2 SLP099
                 T10501078 51011 =
2017-12-16 02:52 METAR KPYM 160752Z AUTO 26006KT 10SM SCT050 OVC095 M05/M07 A2981 RMK AO2 SLP097
                 T10501072 =
2017-12-16 01:52 METAR KPYM 160652Z AUTO 27004KT 10SM BKN050 BKN100 OVC120 M05/M07 A2980 RMK AO2
                 SLP092 T10501072 =
2017-12-16 01:17 METAR KPYM 160617Z AUTO 27005KT 10SM SCT029 BKN055 M05/M07 A2979 RMK AO2
                 T10501067 =
2017-12-16 00:52 METAR KPYM 160552Z AUTO 28005KT 10SM OVC027 M04/M07 A2979 RMK AO2 SNE29 SLP088
                 P0000 60000 T10441067 11033 21050 58017 =
2017-12-16 00:41 METAR KPYM 160541Z AUTO 29005KT 10SM BKN027 BKN049 OVC110 M04/M07 A2979 RMK AO2
                 SNE29 P0000 T10441067 =
2017-12-16 00:12 METAR KPYM 160512Z AUTO 29004KT 4SM -SN BR OVC035 M04/M07 A2979 RMK AO2 P0000
                 T10441067 =
2017-12-16 00:05 METAR KPYM 160505Z AUTO 28004KT 2 1/2SM -SN BR OVC031 M04/M07 A2980 RMK AO2
                 P0000 T10441067 =
2017-12-15 23:52 METAR KPYM 160452Z AUTO 29005KT 1 1/2SM -SN BR OVC024 M04/M07 A2980 RMK AO2
                 SLP093 P0000 T10441067 410221128 =
2017-12-15 23:15 METAR KPYM 160415Z AUTO 30004KT 1 3/4SM -SN BR OVC026 M04/M06 A2981 RMK AO2
                 P0000 T10441061 =
2017-12-15 23:03 METAR KPYM 160403Z AUTO 29004KT 2SM -SN BR OVC025 M04/M06 A2982 RMK AO2 P0000
                 T10441061 =
2017-12-15 22:52 METAR KPYM 160352Z AUTO 28004KT 1 3/4SM -SN BR OVC025 M04/M06 A2983 RMK AO2
                 SLP102 P0000 T10441061 =
2017-12-15 21:52 METAR KPYM 160252Z AUTO 31004KT 1 1/2SM -SN BR OVC029 M04/M06 A2984 RMK AO2
                 SLP107 P0000 60000 T10441061 56012 =

Support USWX by starting your Amazon purchase here.